sensor_id;sensor_type;location;lat;lon;timestamp;P1;durP1;ratioP1;P2;durP2;ratioP2
11447;SDS011;43755;49.736;8.734;2023-10-08T00:00:17;4.50;;;3.85;;
11447;SDS011;43755;49.736;8.734;2023-10-08T00:02:33;5.55;;;3.85;;
11447;SDS011;43755;49.736;8.734;2023-10-08T00:04:34;7.93;;;4.28;;
11447;SDS011;43755;49.736;8.734;2023-10-08T00:06:37;5.55;;;4.18;;
11447;SDS011;43755;49.736;8.734;2023-10-08T00:08:40;7.30;;;3.88;;
11447;SDS011;43755;49.736;8.734;2023-10-08T00:10:42;5.88;;;3.90;;
11447;SDS011;43755;49.736;8.734;2023-10-08T00:12:44;5.97;;;3.83;;
11447;SDS011;43755;49.736;8.734;2023-10-08T00:14:47;5.07;;;3.83;;
11447;SDS011;43755;49.736;8.734;2023-10-08T00:16:53;5.82;;;3.97;;
11447;SDS011;43755;49.736;8.734;2023-10-08T00:18:54;6.20;;;3.50;;
11447;SDS011;43755;49.736;8.734;2023-10-08T00:21:00;5.80;;;4.10;;
11447;SDS011;43755;49.736;8.734;2023-10-08T00:23:16;6.10;;;4.00;;
11447;SDS011;43755;49.736;8.734;2023-10-08T00:25:19;5.75;;;3.60;;
11447;SDS011;43755;49.736;8.734;2023-10-08T00:27:20;5.38;;;3.97;;
11447;SDS011;43755;49.736;8.734;2023-10-08T00:29:22;5.38;;;3.63;;
11447;SDS011;43755;49.736;8.734;2023-10-08T00:31:24;5.28;;;3.58;;
11447;SDS011;43755;49.736;8.734;2023-10-08T00:33:30;5.15;;;3.78;;
11447;SDS011;43755;49.736;8.734;2023-10-08T00:35:32;6.22;;;3.70;;
11447;SDS011;43755;49.736;8.734;2023-10-08T00:37:37;5.28;;;3.65;;
11447;SDS011;43755;49.736;8.734;2023-10-08T00:39:39;5.38;;;3.78;;
11447;SDS011;43755;49.736;8.734;2023-10-08T00:41:43;5.20;;;3.83;;
11447;SDS011;43755;49.736;8.734;2023-10-08T00:43:44;6.80;;;4.32;;
11447;SDS011;43755;49.736;8.734;2023-10-08T00:45:46;6.45;;;4.18;;
11447;SDS011;43755;49.736;8.734;2023-10-08T00:47:50;5.07;;;3.90;;
11447;SDS011;43755;49.736;8.734;2023-10-08T00:49:56;6.18;;;3.80;;
11447;SDS011;43755;49.736;8.734;2023-10-08T00:52:08;5.20;;;3.75;;
11447;SDS011;43755;49.736;8.734;2023-10-08T00:54:26;5.32;;;4.00;;
11447;SDS011;43755;49.736;8.734;2023-10-08T00:56:33;4.55;;;3.30;;
11447;SDS011;43755;49.736;8.734;2023-10-08T00:58:51;4.72;;;3.75;;
11447;SDS011;43755;49.736;8.734;2023-10-08T01:00:54;5.82;;;3.45;;
11447;SDS011;43755;49.736;8.734;2023-10-08T01:02:59;4.82;;;3.92;;
11447;SDS011;43755;49.736;8.734;2023-10-08T01:05:01;5.00;;;3.55;;
11447;SDS011;43755;49.736;8.734;2023-10-08T01:07:02;5.40;;;3.90;;
11447;SDS011;43755;49.736;8.734;2023-10-08T01:09:13;5.22;;;3.40;;
11447;SDS011;43755;49.736;8.734;2023-10-08T01:11:19;4.10;;;3.67;;
11447;SDS011;43755;49.736;8.734;2023-10-08T01:13:32;5.15;;;4.00;;
11447;SDS011;43755;49.736;8.734;2023-10-08T01:15:44;7.70;;;3.92;;
11447;SDS011;43755;49.736;8.734;2023-10-08T01:17:51;7.68;;;4.40;;
11447;SDS011;43755;49.736;8.734;2023-10-08T01:19:58;7.80;;;3.90;;
11447;SDS011;43755;49.736;8.734;2023-10-08T01:22:21;4.88;;;3.58;;
11447;SDS011;43755;49.736;8.734;2023-10-08T01:24:22;5.78;;;3.80;;
11447;SDS011;43755;49.736;8.734;2023-10-08T01:26:24;4.03;;;3.60;;
11447;SDS011;43755;49.736;8.734;2023-10-08T01:28:25;5.35;;;3.88;;
11447;SDS011;43755;49.736;8.734;2023-10-08T01:30:29;5.85;;;4.07;;
11447;SDS011;43755;49.736;8.734;2023-10-08T01:32:35;6.97;;;4.13;;
11447;SDS011;43755;49.736;8.734;2023-10-08T01:34:36;5.47;;;3.65;;
11447;SDS011;43755;49.736;8.734;2023-10-08T01:36:39;6.40;;;3.95;;
11447;SDS011;43755;49.736;8.734;2023-10-08T01:38:44;6.20;;;4.10;;
11447;SDS011;43755;49.736;8.734;2023-10-08T01:40:48;6.32;;;4.30;;
11447;SDS011;43755;49.736;8.734;2023-10-08T01:42:51;6.45;;;4.00;;
11447;SDS011;43755;49.736;8.734;2023-10-08T01:44:52;6.30;;;4.35;;
11447;SDS011;43755;49.736;8.734;2023-10-08T01:46:55;4.68;;;3.92;;
11447;SDS011;43755;49.736;8.734;2023-10-08T01:48:58;6.70;;;4.32;;
11447;SDS011;43755;49.736;8.734;2023-10-08T01:51:05;7.05;;;4.00;;
11447;SDS011;43755;49.736;8.734;2023-10-08T01:53:11;5.32;;;3.92;;
11447;SDS011;43755;49.736;8.734;2023-10-08T01:55:16;5.63;;;4.10;;
11447;SDS011;43755;49.736;8.734;2023-10-08T01:57:19;8.13;;;4.00;;
11447;SDS011;43755;49.736;8.734;2023-10-08T01:59:20;6.43;;;4.32;;
11447;SDS011;43755;49.736;8.734;2023-10-08T02:01:22;6.00;;;3.88;;
11447;SDS011;43755;49.736;8.734;2023-10-08T02:03:23;6.22;;;4.18;;
11447;SDS011;43755;49.736;8.734;2023-10-08T02:05:24;8.75;;;4.07;;
11447;SDS011;43755;49.736;8.734;2023-10-08T02:07:26;6.38;;;3.95;;
11447;SDS011;43755;49.736;8.734;2023-10-08T02:09:29;6.53;;;4.18;;
11447;SDS011;43755;49.736;8.734;2023-10-08T02:11:40;7.05;;;4.25;;
11447;SDS011;43755;49.736;8.734;2023-10-08T02:13:43;6.07;;;4.00;;
11447;SDS011;43755;49.736;8.734;2023-10-08T02:15:48;6.20;;;4.38;;
11447;SDS011;43755;49.736;8.734;2023-10-08T02:17:51;6.68;;;3.90;;
11447;SDS011;43755;49.736;8.734;2023-10-08T02:19:54;6.32;;;4.20;;
11447;SDS011;43755;49.736;8.734;2023-10-08T02:21:55;6.83;;;4.00;;
11447;SDS011;43755;49.736;8.734;2023-10-08T02:23:57;6.53;;;4.50;;
11447;SDS011;43755;49.736;8.734;2023-10-08T02:25:59;6.38;;;3.92;;
11447;SDS011;43755;49.736;8.734;2023-10-08T02:28:03;6.85;;;4.07;;
11447;SDS011;43755;49.736;8.734;2023-10-08T02:30:05;6.30;;;4.07;;
11447;SDS011;43755;49.736;8.734;2023-10-08T02:32:09;5.70;;;4.10;;
11447;SDS011;43755;49.736;8.734;2023-10-08T02:34:10;6.32;;;4.47;;
11447;SDS011;43755;49.736;8.734;2023-10-08T02:36:13;6.10;;;4.20;;
11447;SDS011;43755;49.736;8.734;2023-10-08T02:38:16;5.70;;;4.07;;
11447;SDS011;43755;49.736;8.734;2023-10-08T02:40:18;9.00;;;4.07;;
11447;SDS011;43755;49.736;8.734;2023-10-08T02:42:26;5.95;;;4.20;;
11447;SDS011;43755;49.736;8.734;2023-10-08T02:44:28;6.80;;;4.15;;
11447;SDS011;43755;49.736;8.734;2023-10-08T02:46:30;6.72;;;4.38;;
11447;SDS011;43755;49.736;8.734;2023-10-08T02:48:33;5.78;;;4.30;;
11447;SDS011;43755;49.736;8.734;2023-10-08T02:50:35;6.30;;;4.30;;
11447;SDS011;43755;49.736;8.734;2023-10-08T02:52:37;5.32;;;4.20;;
11447;SDS011;43755;49.736;8.734;2023-10-08T02:54:38;6.00;;;4.20;;
11447;SDS011;43755;49.736;8.734;2023-10-08T02:56:40;5.70;;;4.05;;
11447;SDS011;43755;49.736;8.734;2023-10-08T02:58:44;6.90;;;4.20;;
11447;SDS011;43755;49.736;8.734;2023-10-08T03:00:49;7.40;;;4.43;;
11447;SDS011;43755;49.736;8.734;2023-10-08T03:02:49;7.22;;;4.10;;
11447;SDS011;43755;49.736;8.734;2023-10-08T03:04:51;5.55;;;4.35;;
11447;SDS011;43755;49.736;8.734;2023-10-08T03:06:53;7.10;;;4.40;;
11447;SDS011;43755;49.736;8.734;2023-10-08T03:08:54;6.00;;;4.35;;
11447;SDS011;43755;49.736;8.734;2023-10-08T03:10:56;6.55;;;4.45;;
11447;SDS011;43755;49.736;8.734;2023-10-08T03:13:02;8.05;;;4.07;;
11447;SDS011;43755;49.736;8.734;2023-10-08T03:15:07;5.30;;;4.00;;
11447;SDS011;43755;49.736;8.734;2023-10-08T03:17:15;5.45;;;4.28;;
11447;SDS011;43755;49.736;8.734;2023-10-08T03:19:21;5.68;;;4.30;;
11447;SDS011;43755;49.736;8.734;2023-10-08T03:21:24;5.05;;;3.85;;
11447;SDS011;43755;49.736;8.734;2023-10-08T03:23:40;5.40;;;4.22;;
11447;SDS011;43755;49.736;8.734;2023-10-08T03:25:47;7.70;;;4.50;;
11447;SDS011;43755;49.736;8.734;2023-10-08T03:27:56;6.18;;;4.05;;
11447;SDS011;43755;49.736;8.734;2023-10-08T03:29:59;7.63;;;3.92;;
11447;SDS011;43755;49.736;8.734;2023-10-08T03:32:00;6.80;;;4.45;;
11447;SDS011;43755;49.736;8.734;2023-10-08T03:34:07;5.80;;;4.20;;
11447;SDS011;43755;49.736;8.734;2023-10-08T03:36:12;7.00;;;4.75;;
11447;SDS011;43755;49.736;8.734;2023-10-08T03:38:21;9.30;;;5.15;;
11447;SDS011;43755;49.736;8.734;2023-10-08T03:40:28;6.07;;;4.57;;
11447;SDS011;43755;49.736;8.734;2023-10-08T03:42:42;7.63;;;4.18;;
11447;SDS011;43755;49.736;8.734;2023-10-08T03:44:49;6.68;;;4.22;;
11447;SDS011;43755;49.736;8.734;2023-10-08T03:46:52;5.10;;;4.43;;
11447;SDS011;43755;49.736;8.734;2023-10-08T03:48:57;6.70;;;4.40;;
11447;SDS011;43755;49.736;8.734;2023-10-08T03:51:06;5.97;;;4.30;;
11447;SDS011;43755;49.736;8.734;2023-10-08T03:53:11;7.78;;;4.45;;
11447;SDS011;43755;49.736;8.734;2023-10-08T03:55:13;8.05;;;4.80;;
11447;SDS011;43755;49.736;8.734;2023-10-08T03:57:21;7.43;;;4.45;;
11447;SDS011;43755;49.736;8.734;2023-10-08T03:59:41;8.60;;;4.63;;
11447;SDS011;43755;49.736;8.734;2023-10-08T04:01:42;6.20;;;4.75;;
11447;SDS011;43755;49.736;8.734;2023-10-08T04:03:45;6.72;;;4.03;;
11447;SDS011;43755;49.736;8.734;2023-10-08T04:05:58;6.32;;;4.65;;
11447;SDS011;43755;49.736;8.734;2023-10-08T04:08:15;6.93;;;4.80;;
11447;SDS011;43755;49.736;8.734;2023-10-08T04:10:24;5.97;;;4.32;;
11447;SDS011;43755;49.736;8.734;2023-10-08T04:12:59;8.40;;;4.63;;
11447;SDS011;43755;49.736;8.734;2023-10-08T04:15:01;7.38;;;4.32;;
11447;SDS011;43755;49.736;8.734;2023-10-08T04:17:07;5.00;;;4.50;;
11447;SDS011;43755;49.736;8.734;2023-10-08T04:19:09;6.60;;;4.47;;
11447;SDS011;43755;49.736;8.734;2023-10-08T04:21:10;7.63;;;4.35;;
11447;SDS011;43755;49.736;8.734;2023-10-08T04:23:13;6.78;;;4.65;;
11447;SDS011;43755;49.736;8.734;2023-10-08T04:25:19;8.63;;;4.55;;
11447;SDS011;43755;49.736;8.734;2023-10-08T04:27:21;6.57;;;4.63;;
11447;SDS011;43755;49.736;8.734;2023-10-08T04:29:23;5.55;;;4.57;;
11447;SDS011;43755;49.736;8.734;2023-10-08T04:31:25;7.68;;;4.78;;
11447;SDS011;43755;49.736;8.734;2023-10-08T04:33:37;6.40;;;4.65;;
11447;SDS011;43755;49.736;8.734;2023-10-08T04:35:38;5.82;;;4.50;;
11447;SDS011;43755;49.736;8.734;2023-10-08T04:37:48;5.32;;;4.47;;
11447;SDS011;43755;49.736;8.734;2023-10-08T04:39:52;5.57;;;4.70;;
11447;SDS011;43755;49.736;8.734;2023-10-08T04:42:01;8.30;;;4.95;;
11447;SDS011;43755;49.736;8.734;2023-10-08T04:44:10;7.57;;;4.30;;
11447;SDS011;43755;49.736;8.734;2023-10-08T04:46:15;6.03;;;4.50;;
11447;SDS011;43755;49.736;8.734;2023-10-08T04:48:33;7.00;;;4.85;;
11447;SDS011;43755;49.736;8.734;2023-10-08T04:50:36;7.20;;;4.80;;
11447;SDS011;43755;49.736;8.734;2023-10-08T04:52:38;8.00;;;4.72;;
11447;SDS011;43755;49.736;8.734;2023-10-08T04:54:46;9.10;;;4.75;;
11447;SDS011;43755;49.736;8.734;2023-10-08T04:56:51;8.82;;;4.60;;
11447;SDS011;43755;49.736;8.734;2023-10-08T04:58:54;6.50;;;4.60;;
11447;SDS011;43755;49.736;8.734;2023-10-08T05:00:56;9.25;;;4.55;;
11447;SDS011;43755;49.736;8.734;2023-10-08T05:03:00;6.68;;;4.45;;
11447;SDS011;43755;49.736;8.734;2023-10-08T05:05:10;5.28;;;4.22;;
11447;SDS011;43755;49.736;8.734;2023-10-08T05:07:24;6.43;;;4.30;;
11447;SDS011;43755;49.736;8.734;2023-10-08T05:09:44;4.72;;;4.25;;
11447;SDS011;43755;49.736;8.734;2023-10-08T05:12:11;5.75;;;4.68;;
11447;SDS011;43755;49.736;8.734;2023-10-08T05:14:31;6.68;;;4.38;;
11447;SDS011;43755;49.736;8.734;2023-10-08T05:16:38;5.00;;;4.00;;
11447;SDS011;43755;49.736;8.734;2023-10-08T05:19:00;7.32;;;4.32;;
11447;SDS011;43755;49.736;8.734;2023-10-08T05:21:26;8.27;;;4.72;;
11447;SDS011;43755;49.736;8.734;2023-10-08T05:23:28;6.85;;;4.55;;
11447;SDS011;43755;49.736;8.734;2023-10-08T05:25:47;6.68;;;4.00;;
11447;SDS011;43755;49.736;8.734;2023-10-08T05:28:08;4.90;;;4.25;;
11447;SDS011;43755;49.736;8.734;2023-10-08T05:30:12;5.70;;;4.10;;
11447;SDS011;43755;49.736;8.734;2023-10-08T05:32:16;4.70;;;4.18;;
11447;SDS011;43755;49.736;8.734;2023-10-08T05:34:38;7.88;;;4.00;;
11447;SDS011;43755;49.736;8.734;2023-10-08T05:36:56;6.18;;;4.85;;
11447;SDS011;43755;49.736;8.734;2023-10-08T05:39:31;7.65;;;4.40;;
11447;SDS011;43755;49.736;8.734;2023-10-08T05:41:40;5.05;;;4.38;;
11447;SDS011;43755;49.736;8.734;2023-10-08T05:43:51;5.53;;;4.65;;
11447;SDS011;43755;49.736;8.734;2023-10-08T05:46:12;5.47;;;4.32;;
11447;SDS011;43755;49.736;8.734;2023-10-08T05:48:39;8.98;;;4.75;;
11447;SDS011;43755;49.736;8.734;2023-10-08T05:50:45;5.97;;;4.43;;
11447;SDS011;43755;49.736;8.734;2023-10-08T05:53:12;6.88;;;4.20;;
11447;SDS011;43755;49.736;8.734;2023-10-08T05:55:30;6.28;;;4.43;;
11447;SDS011;43755;49.736;8.734;2023-10-08T05:57:36;8.43;;;4.78;;
11447;SDS011;43755;49.736;8.734;2023-10-08T05:59:39;7.32;;;4.95;;
11447;SDS011;43755;49.736;8.734;2023-10-08T06:01:54;7.45;;;4.72;;
11447;SDS011;43755;49.736;8.734;2023-10-08T06:04:06;7.07;;;4.68;;
11447;SDS011;43755;49.736;8.734;2023-10-08T06:06:21;7.93;;;4.65;;
11447;SDS011;43755;49.736;8.734;2023-10-08T06:08:37;7.57;;;4.63;;
11447;SDS011;43755;49.736;8.734;2023-10-08T06:10:51;7.00;;;4.43;;
11447;SDS011;43755;49.736;8.734;2023-10-08T06:12:57;4.85;;;4.13;;
11447;SDS011;43755;49.736;8.734;2023-10-08T06:15:02;5.47;;;4.40;;
11447;SDS011;43755;49.736;8.734;2023-10-08T06:17:08;5.55;;;4.00;;
11447;SDS011;43755;49.736;8.734;2023-10-08T06:19:23;6.05;;;4.32;;
11447;SDS011;43755;49.736;8.734;2023-10-08T06:21:25;8.05;;;4.90;;
11447;SDS011;43755;49.736;8.734;2023-10-08T06:23:27;5.18;;;4.55;;
11447;SDS011;43755;49.736;8.734;2023-10-08T06:25:32;8.07;;;5.05;;
11447;SDS011;43755;49.736;8.734;2023-10-08T06:27:33;6.15;;;4.20;;
11447;SDS011;43755;49.736;8.734;2023-10-08T06:29:33;9.23;;;4.60;;
11447;SDS011;43755;49.736;8.734;2023-10-08T06:31:35;9.77;;;4.78;;
11447;SDS011;43755;49.736;8.734;2023-10-08T06:33:39;4.75;;;4.25;;
11447;SDS011;43755;49.736;8.734;2023-10-08T06:35:41;6.80;;;4.75;;
11447;SDS011;43755;49.736;8.734;2023-10-08T06:37:44;7.57;;;4.72;;
11447;SDS011;43755;49.736;8.734;2023-10-08T06:39:45;6.53;;;4.43;;
11447;SDS011;43755;49.736;8.734;2023-10-08T06:41:48;7.82;;;4.80;;
11447;SDS011;43755;49.736;8.734;2023-10-08T06:43:49;6.43;;;4.28;;
11447;SDS011;43755;49.736;8.734;2023-10-08T06:46:02;5.88;;;4.43;;
11447;SDS011;43755;49.736;8.734;2023-10-08T06:48:07;5.72;;;4.65;;
11447;SDS011;43755;49.736;8.734;2023-10-08T06:50:10;10.13;;;5.47;;
11447;SDS011;43755;49.736;8.734;2023-10-08T06:52:15;6.05;;;4.60;;
11447;SDS011;43755;49.736;8.734;2023-10-08T06:54:17;6.35;;;4.93;;
11447;SDS011;43755;49.736;8.734;2023-10-08T06:56:18;6.93;;;4.82;;
11447;SDS011;43755;49.736;8.734;2023-10-08T06:58:20;6.78;;;5.03;;
11447;SDS011;43755;49.736;8.734;2023-10-08T07:00:21;7.50;;;5.22;;
11447;SDS011;43755;49.736;8.734;2023-10-08T07:02:38;7.75;;;5.30;;
11447;SDS011;43755;49.736;8.734;2023-10-08T07:04:40;7.80;;;5.22;;
11447;SDS011;43755;49.736;8.734;2023-10-08T07:06:45;5.80;;;4.93;;
11447;SDS011;43755;49.736;8.734;2023-10-08T07:08:47;7.10;;;5.60;;
11447;SDS011;43755;49.736;8.734;2023-10-08T07:10:54;7.53;;;5.20;;
11447;SDS011;43755;49.736;8.734;2023-10-08T07:12:56;6.97;;;5.10;;
11447;SDS011;43755;49.736;8.734;2023-10-08T07:14:57;7.20;;;5.30;;
11447;SDS011;43755;49.736;8.734;2023-10-08T07:16:59;6.75;;;4.78;;
11447;SDS011;43755;49.736;8.734;2023-10-08T07:19:01;6.00;;;4.72;;
11447;SDS011;43755;49.736;8.734;2023-10-08T07:21:05;6.90;;;4.80;;
11447;SDS011;43755;49.736;8.734;2023-10-08T07:23:13;6.18;;;4.80;;
11447;SDS011;43755;49.736;8.734;2023-10-08T07:25:20;6.72;;;4.93;;
11447;SDS011;43755;49.736;8.734;2023-10-08T07:27:22;7.13;;;4.70;;
11447;SDS011;43755;49.736;8.734;2023-10-08T07:29:29;5.85;;;4.43;;
11447;SDS011;43755;49.736;8.734;2023-10-08T07:31:32;6.22;;;4.72;;
11447;SDS011;43755;49.736;8.734;2023-10-08T07:33:36;8.27;;;5.25;;
11447;SDS011;43755;49.736;8.734;2023-10-08T07:35:37;9.15;;;5.60;;
11447;SDS011;43755;49.736;8.734;2023-10-08T07:37:41;6.63;;;5.07;;
11447;SDS011;43755;49.736;8.734;2023-10-08T07:39:44;5.45;;;4.63;;
11447;SDS011;43755;49.736;8.734;2023-10-08T07:41:46;7.35;;;5.57;;
11447;SDS011;43755;49.736;8.734;2023-10-08T07:43:48;5.40;;;4.72;;
11447;SDS011;43755;49.736;8.734;2023-10-08T07:45:55;7.50;;;4.68;;
11447;SDS011;43755;49.736;8.734;2023-10-08T07:47:56;6.38;;;5.65;;
11447;SDS011;43755;49.736;8.734;2023-10-08T07:49:58;7.03;;;4.72;;
11447;SDS011;43755;49.736;8.734;2023-10-08T07:51:59;6.85;;;4.70;;
11447;SDS011;43755;49.736;8.734;2023-10-08T07:54:01;6.80;;;5.20;;
11447;SDS011;43755;49.736;8.734;2023-10-08T07:56:04;7.32;;;5.18;;
11447;SDS011;43755;49.736;8.734;2023-10-08T07:58:08;7.25;;;5.80;;
11447;SDS011;43755;49.736;8.734;2023-10-08T08:00:10;7.53;;;5.45;;
11447;SDS011;43755;49.736;8.734;2023-10-08T08:02:22;7.20;;;5.10;;
11447;SDS011;43755;49.736;8.734;2023-10-08T08:04:24;7.15;;;5.50;;
11447;SDS011;43755;49.736;8.734;2023-10-08T08:06:33;6.50;;;5.18;;
11447;SDS011;43755;49.736;8.734;2023-10-08T08:08:34;7.82;;;5.30;;
11447;SDS011;43755;49.736;8.734;2023-10-08T08:10:36;7.53;;;4.95;;
11447;SDS011;43755;49.736;8.734;2023-10-08T08:12:41;7.18;;;5.03;;
11447;SDS011;43755;49.736;8.734;2023-10-08T08:14:42;7.35;;;5.20;;
11447;SDS011;43755;49.736;8.734;2023-10-08T08:16:43;9.07;;;5.18;;
11447;SDS011;43755;49.736;8.734;2023-10-08T08:18:48;8.35;;;4.80;;
11447;SDS011;43755;49.736;8.734;2023-10-08T08:20:51;8.07;;;4.93;;
11447;SDS011;43755;49.736;8.734;2023-10-08T08:22:54;9.10;;;4.65;;
11447;SDS011;43755;49.736;8.734;2023-10-08T08:24:56;6.38;;;4.93;;
11447;SDS011;43755;49.736;8.734;2023-10-08T08:27:05;7.40;;;5.20;;
11447;SDS011;43755;49.736;8.734;2023-10-08T08:29:12;7.28;;;4.78;;
11447;SDS011;43755;49.736;8.734;2023-10-08T08:31:15;6.65;;;4.90;;
11447;SDS011;43755;49.736;8.734;2023-10-08T08:33:18;8.43;;;4.97;;
11447;SDS011;43755;49.736;8.734;2023-10-08T08:35:23;5.97;;;4.80;;
11447;SDS011;43755;49.736;8.734;2023-10-08T08:37:24;6.85;;;4.70;;
11447;SDS011;43755;49.736;8.734;2023-10-08T08:39:29;6.45;;;4.55;;
11447;SDS011;43755;49.736;8.734;2023-10-08T08:41:36;8.07;;;5.38;;
11447;SDS011;43755;49.736;8.734;2023-10-08T08:43:37;5.28;;;4.60;;
11447;SDS011;43755;49.736;8.734;2023-10-08T08:45:45;5.18;;;4.53;;
11447;SDS011;43755;49.736;8.734;2023-10-08T08:47:49;5.63;;;4.60;;
11447;SDS011;43755;49.736;8.734;2023-10-08T08:49:52;7.07;;;4.82;;
11447;SDS011;43755;49.736;8.734;2023-10-08T08:51:55;7.18;;;4.60;;
11447;SDS011;43755;49.736;8.734;2023-10-08T08:54:00;4.95;;;4.50;;
11447;SDS011;43755;49.736;8.734;2023-10-08T08:56:06;6.15;;;4.47;;
11447;SDS011;43755;49.736;8.734;2023-10-08T08:58:09;5.53;;;4.70;;
11447;SDS011;43755;49.736;8.734;2023-10-08T09:00:11;9.38;;;4.38;;
11447;SDS011;43755;49.736;8.734;2023-10-08T09:02:15;7.18;;;4.50;;
11447;SDS011;43755;49.736;8.734;2023-10-08T09:04:23;6.65;;;4.57;;
11447;SDS011;43755;49.736;8.734;2023-10-08T09:06:29;6.63;;;5.00;;
11447;SDS011;43755;49.736;8.734;2023-10-08T09:08:34;7.47;;;5.20;;
11447;SDS011;43755;49.736;8.734;2023-10-08T09:10:36;6.10;;;4.68;;
11447;SDS011;43755;49.736;8.734;2023-10-08T09:12:51;6.30;;;4.90;;
11447;SDS011;43755;49.736;8.734;2023-10-08T09:14:52;5.22;;;4.30;;
11447;SDS011;43755;49.736;8.734;2023-10-08T09:16:54;5.40;;;4.43;;
11447;SDS011;43755;49.736;8.734;2023-10-08T09:18:57;6.05;;;4.57;;
11447;SDS011;43755;49.736;8.734;2023-10-08T09:21:06;6.88;;;4.75;;
11447;SDS011;43755;49.736;8.734;2023-10-08T09:23:11;6.10;;;4.90;;
11447;SDS011;43755;49.736;8.734;2023-10-08T09:25:15;6.68;;;4.63;;
11447;SDS011;43755;49.736;8.734;2023-10-08T09:27:22;6.45;;;4.85;;
11447;SDS011;43755;49.736;8.734;2023-10-08T09:29:27;5.70;;;4.50;;
11447;SDS011;43755;49.736;8.734;2023-10-08T09:31:29;5.82;;;4.18;;
11447;SDS011;43755;49.736;8.734;2023-10-08T09:33:35;5.80;;;4.30;;
11447;SDS011;43755;49.736;8.734;2023-10-08T09:35:38;6.40;;;4.20;;
11447;SDS011;43755;49.736;8.734;2023-10-08T09:37:40;5.10;;;4.27;;
11447;SDS011;43755;49.736;8.734;2023-10-08T09:39:42;8.45;;;4.25;;
11447;SDS011;43755;49.736;8.734;2023-10-08T09:41:45;6.60;;;4.27;;
11447;SDS011;43755;49.736;8.734;2023-10-08T09:43:47;7.45;;;5.10;;
11447;SDS011;43755;49.736;8.734;2023-10-08T09:45:51;7.97;;;4.87;;
11447;SDS011;43755;49.736;8.734;2023-10-08T09:47:54;7.93;;;4.40;;
11447;SDS011;43755;49.736;8.734;2023-10-08T09:50:01;5.63;;;4.20;;
11447;SDS011;43755;49.736;8.734;2023-10-08T09:52:08;6.53;;;4.47;;
11447;SDS011;43755;49.736;8.734;2023-10-08T09:54:15;7.90;;;4.80;;
11447;SDS011;43755;49.736;8.734;2023-10-08T09:56:21;7.17;;;4.87;;
11447;SDS011;43755;49.736;8.734;2023-10-08T09:58:24;9.17;;;4.57;;
11447;SDS011;43755;49.736;8.734;2023-10-08T10:00:28;7.60;;;4.50;;
11447;SDS011;43755;49.736;8.734;2023-10-08T10:02:32;7.53;;;4.50;;
11447;SDS011;43755;49.736;8.734;2023-10-08T10:04:34;7.07;;;4.70;;
11447;SDS011;43755;49.736;8.734;2023-10-08T10:06:35;9.83;;;4.70;;
11447;SDS011;43755;49.736;8.734;2023-10-08T10:08:38;5.30;;;4.50;;
11447;SDS011;43755;49.736;8.734;2023-10-08T10:10:40;8.20;;;4.80;;
11447;SDS011;43755;49.736;8.734;2023-10-08T10:12:45;5.03;;;4.07;;
11447;SDS011;43755;49.736;8.734;2023-10-08T10:14:47;7.03;;;4.60;;
11447;SDS011;43755;49.736;8.734;2023-10-08T10:16:49;7.13;;;4.40;;
11447;SDS011;43755;49.736;8.734;2023-10-08T10:19:15;6.80;;;4.63;;
11447;SDS011;43755;49.736;8.734;2023-10-08T10:21:25;6.47;;;4.80;;
11447;SDS011;43755;49.736;8.734;2023-10-08T10:23:35;5.80;;;4.30;;
11447;SDS011;43755;49.736;8.734;2023-10-08T10:25:39;10.13;;;4.20;;
11447;SDS011;43755;49.736;8.734;2023-10-08T10:30:21;6.57;;;4.63;;
11447;SDS011;43755;49.736;8.734;2023-10-08T10:32:23;6.37;;;4.40;;
11447;SDS011;43755;49.736;8.734;2023-10-08T10:34:26;5.83;;;4.77;;
11447;SDS011;43755;49.736;8.734;2023-10-08T10:36:27;5.83;;;4.50;;
11447;SDS011;43755;49.736;8.734;2023-10-08T10:38:31;6.65;;;4.50;;
11447;SDS011;43755;49.736;8.734;2023-10-08T10:40:35;5.80;;;4.57;;
11447;SDS011;43755;49.736;8.734;2023-10-08T10:42:40;9.00;;;5.00;;
11447;SDS011;43755;49.736;8.734;2023-10-08T10:44:44;5.87;;;4.37;;
11447;SDS011;43755;49.736;8.734;2023-10-08T10:46:45;6.63;;;4.63;;
11447;SDS011;43755;49.736;8.734;2023-10-08T10:48:50;6.67;;;4.60;;
11447;SDS011;43755;49.736;8.734;2023-10-08T10:51:03;6.60;;;4.20;;
11447;SDS011;43755;49.736;8.734;2023-10-08T10:53:10;7.13;;;5.03;;
11447;SDS011;43755;49.736;8.734;2023-10-08T10:55:11;5.23;;;4.43;;
11447;SDS011;43755;49.736;8.734;2023-10-08T10:57:24;8.17;;;4.93;;
11447;SDS011;43755;49.736;8.734;2023-10-08T10:59:26;9.80;;;4.60;;
11447;SDS011;43755;49.736;8.734;2023-10-08T11:01:28;5.27;;;4.37;;
11447;SDS011;43755;49.736;8.734;2023-10-08T11:03:31;6.67;;;4.60;;
11447;SDS011;43755;49.736;8.734;2023-10-08T11:05:34;8.10;;;5.17;;
11447;SDS011;43755;49.736;8.734;2023-10-08T11:07:37;9.17;;;4.60;;
11447;SDS011;43755;49.736;8.734;2023-10-08T11:09:40;9.90;;;5.17;;
11447;SDS011;43755;49.736;8.734;2023-10-08T11:11:44;5.57;;;4.53;;
11447;SDS011;43755;49.736;8.734;2023-10-08T11:13:47;5.80;;;5.10;;
11447;SDS011;43755;49.736;8.734;2023-10-08T11:15:54;4.83;;;4.07;;
11447;SDS011;43755;49.736;8.734;2023-10-08T11:17:58;6.90;;;4.60;;
11447;SDS011;43755;49.736;8.734;2023-10-08T11:19:59;5.97;;;4.83;;
11447;SDS011;43755;49.736;8.734;2023-10-08T11:22:07;4.83;;;4.23;;
11447;SDS011;43755;49.736;8.734;2023-10-08T11:24:26;8.70;;;4.50;;
11447;SDS011;43755;49.736;8.734;2023-10-08T11:26:34;7.73;;;4.83;;
11447;SDS011;43755;49.736;8.734;2023-10-08T11:28:39;7.00;;;4.97;;
11447;SDS011;43755;49.736;8.734;2023-10-08T11:30:44;8.17;;;4.40;;
11447;SDS011;43755;49.736;8.734;2023-10-08T11:32:47;5.80;;;4.33;;
11447;SDS011;43755;49.736;8.734;2023-10-08T11:34:48;6.17;;;4.47;;
11447;SDS011;43755;49.736;8.734;2023-10-08T11:36:52;7.83;;;4.40;;
11447;SDS011;43755;49.736;8.734;2023-10-08T11:38:55;7.40;;;4.50;;
11447;SDS011;43755;49.736;8.734;2023-10-08T11:41:09;9.83;;;4.37;;
11447;SDS011;43755;49.736;8.734;2023-10-08T11:43:13;6.30;;;4.60;;
11447;SDS011;43755;49.736;8.734;2023-10-08T11:45:15;5.90;;;4.37;;
11447;SDS011;43755;49.736;8.734;2023-10-08T11:47:25;8.40;;;4.60;;
11447;SDS011;43755;49.736;8.734;2023-10-08T11:49:35;6.17;;;4.70;;
11447;SDS011;43755;49.736;8.734;2023-10-08T11:51:37;9.33;;;4.63;;
11447;SDS011;43755;49.736;8.734;2023-10-08T11:53:40;10.93;;;4.87;;
11447;SDS011;43755;49.736;8.734;2023-10-08T11:55:41;8.17;;;4.77;;
11447;SDS011;43755;49.736;8.734;2023-10-08T11:57:45;6.57;;;4.57;;
11447;SDS011;43755;49.736;8.734;2023-10-08T11:59:49;7.27;;;4.40;;
11447;SDS011;43755;49.736;8.734;2023-10-08T12:01:52;7.53;;;4.47;;
11447;SDS011;43755;49.736;8.734;2023-10-08T12:03:57;6.17;;;4.40;;
11447;SDS011;43755;49.736;8.734;2023-10-08T12:05:59;6.83;;;4.97;;
11447;SDS011;43755;49.736;8.734;2023-10-08T12:08:00;7.20;;;4.20;;
11447;SDS011;43755;49.736;8.734;2023-10-08T12:10:01;6.37;;;4.70;;
11447;SDS011;43755;49.736;8.734;2023-10-08T12:12:03;8.23;;;4.63;;
11447;SDS011;43755;49.736;8.734;2023-10-08T12:14:09;7.77;;;4.57;;
11447;SDS011;43755;49.736;8.734;2023-10-08T12:16:11;7.60;;;4.70;;
11447;SDS011;43755;49.736;8.734;2023-10-08T12:18:18;7.60;;;5.00;;
11447;SDS011;43755;49.736;8.734;2023-10-08T12:20:25;5.03;;;4.40;;
11447;SDS011;43755;49.736;8.734;2023-10-08T12:22:28;5.60;;;4.27;;
11447;SDS011;43755;49.736;8.734;2023-10-08T12:24:30;11.27;;;5.20;;
11447;SDS011;43755;49.736;8.734;2023-10-08T12:26:33;7.60;;;4.53;;
11447;SDS011;43755;49.736;8.734;2023-10-08T12:28:35;6.73;;;4.43;;
11447;SDS011;43755;49.736;8.734;2023-10-08T12:30:36;6.20;;;4.33;;
11447;SDS011;43755;49.736;8.734;2023-10-08T12:32:41;7.77;;;4.60;;
11447;SDS011;43755;49.736;8.734;2023-10-08T12:34:42;9.67;;;4.80;;
11447;SDS011;43755;49.736;8.734;2023-10-08T12:36:45;8.93;;;4.50;;
11447;SDS011;43755;49.736;8.734;2023-10-08T12:38:48;10.90;;;4.53;;